createdAt,value
2023-02-03T00:00:19.644Z,100345.19
2023-02-03T00:02:48.949Z,100337.78
2023-02-03T00:05:17.763Z,100343.25
2023-02-03T00:07:45.711Z,100341.13
2023-02-03T00:10:14.080Z,100352.06
2023-02-03T00:12:42.378Z,100357.66
2023-02-03T00:15:10.952Z,100354.22
2023-02-03T00:17:38.814Z,100362.16
2023-02-03T00:20:08.696Z,100358.72
2023-02-03T00:22:36.533Z,100363.44
2023-02-03T00:25:04.924Z,100371.59
2023-02-03T00:27:33.332Z,100379.97
2023-02-03T00:30:01.199Z,100371.59
2023-02-03T00:32:29.702Z,100380.50
2023-02-03T00:34:57.570Z,100382.75
2023-02-03T00:37:27.228Z,100400.03
2023-02-03T00:39:55.082Z,100399.09
2023-02-03T00:42:22.955Z,100399.63
2023-02-03T00:44:50.801Z,100396.31
2023-02-03T00:47:18.705Z,100399.31
2023-02-03T00:49:46.544Z,100404.13
2023-02-03T00:52:14.405Z,100408.84
2023-02-03T00:54:43.706Z,100397.13
2023-02-03T00:57:11.609Z,100402.75
2023-02-03T00:59:40.332Z,100408.31
2023-02-03T01:02:08.408Z,100412.16
2023-02-03T01:04:36.257Z,100410.22
2023-02-03T01:07:05.187Z,100374.69
2023-02-03T01:09:36.064Z,100399.38
2023-02-03T01:12:05.642Z,100401.63
2023-02-03T01:14:35.236Z,100384.44
2023-02-03T01:17:05.681Z,100398.84
2023-02-03T01:19:33.777Z,100391.31
2023-02-03T01:22:01.579Z,100392.81
2023-02-03T01:24:31.502Z,100394.19
2023-02-03T01:26:59.362Z,100399.03
2023-02-03T01:29:30.493Z,100403.84
2023-02-03T01:31:58.605Z,100397.19
2023-02-03T01:34:26.564Z,100404.69
2023-02-03T01:36:54.523Z,100409.63
2023-02-03T01:39:23.237Z,100420.38
2023-02-03T01:41:51.104Z,100413.59
2023-02-03T01:44:52.148Z,100423.69
2023-02-03T01:47:28.295Z,100429.09
2023-02-03T01:50:03.116Z,100396.84
2023-02-03T01:52:32.661Z,100421.03
2023-02-03T01:55:03.538Z,100416.22
2023-02-03T01:57:34.968Z,100396.03
2023-02-03T02:00:07.338Z,100384.50
2023-02-03T02:02:46.722Z,100392.38
2023-02-03T02:05:20.636Z,100406.13
2023-02-03T02:07:49.567Z,100402.47
2023-02-03T02:10:17.847Z,100400.28
2023-02-03T02:12:46.023Z,100393.84
2023-02-03T02:15:16.134Z,100401.13
2023-02-03T02:18:21.652Z,100402.38
2023-02-03T02:21:17.503Z,100400.25
2023-02-03T02:24:21.989Z,100404.94
2023-02-03T02:27:00.967Z,100388.84
2023-02-03T02:30:07.881Z,100388.09
2023-02-03T02:32:48.332Z,100381.09
2023-02-03T02:35:23.943Z,100392.03
2023-02-03T02:38:00.193Z,100394.16
2023-02-03T02:40:37.136Z,100375.25
2023-02-03T02:43:11.680Z,100390.75
2023-02-03T02:45:47.963Z,100402.13
2023-02-03T02:48:24.061Z,100406.19
2023-02-03T02:50:56.229Z,100399.31
2023-02-03T02:53:29.837Z,100407.47
2023-02-03T02:55:59.654Z,100407.47
2023-02-03T02:58:29.141Z,100407.25
2023-02-03T03:00:57.257Z,100404.00
2023-02-03T03:03:26.549Z,100403.28
2023-02-03T03:05:57.041Z,100400.81
2023-02-03T03:08:32.900Z,100393.66
2023-02-03T03:11:02.828Z,100390.56
2023-02-03T03:13:35.310Z,100393.13
2023-02-03T03:16:07.634Z,100389.91
2023-02-03T03:18:43.562Z,100387.47
2023-02-03T03:21:14.533Z,100378.34
2023-02-03T03:23:47.274Z,100378.34
2023-02-03T03:26:18.964Z,100374.16
2023-02-03T03:28:50.474Z,100375.13
2023-02-03T03:31:19.981Z,100372.66
2023-02-03T03:33:49.996Z,100368.72
2023-02-03T03:36:26.106Z,100370.44
2023-02-03T03:39:00.547Z,100375.25
2023-02-03T03:41:37.778Z,100372.44
2023-02-03T03:44:10.453Z,100380.81
2023-02-03T03:46:44.352Z,100376.38
2023-02-03T03:49:14.842Z,100377.38
2023-02-03T03:51:48.061Z,100375.66
2023-02-03T03:54:20.283Z,100373.06
2023-02-03T03:56:54.424Z,100373.69
2023-02-03T03:59:25.840Z,100379.38
2023-02-03T04:01:54.182Z,100370.84
2023-02-03T04:04:26.341Z,100360.31
2023-02-03T04:06:54.534Z,100386.09
2023-02-03T04:09:22.403Z,100383.63
2023-02-03T04:12:02.350Z,100382.53
2023-02-03T04:14:30.981Z,100377.63
2023-02-03T04:16:59.070Z,100378.06
2023-02-03T04:19:28.574Z,100371.22
2023-02-03T04:21:56.536Z,100364.22
2023-02-03T04:24:24.466Z,100363.63
2023-02-03T04:26:52.685Z,100371.66
2023-02-03T04:29:20.514Z,100367.94
2023-02-03T04:31:48.435Z,100348.84
2023-02-03T04:34:16.353Z,100360.53
2023-02-03T04:36:45.546Z,100369.88
2023-02-03T04:39:13.378Z,100362.69
2023-02-03T04:41:41.754Z,100358.94
2023-02-03T04:44:10.455Z,100357.53
2023-02-03T04:46:38.252Z,100344.75
2023-02-03T04:49:06.343Z,100353.69
2023-02-03T04:51:34.167Z,100359.59
2023-02-03T04:54:03.418Z,100357.75
2023-02-03T04:56:31.227Z,100351.22
2023-02-03T04:58:59.089Z,100347.16
2023-02-03T05:01:26.919Z,100347.25
2023-02-03T05:03:54.805Z,100343.28
2023-02-03T05:06:24.413Z,100343.28
2023-02-03T05:08:52.416Z,100348.97
2023-02-03T05:11:21.925Z,100346.28
2023-02-03T05:13:49.791Z,100350.34
2023-02-03T05:16:17.720Z,100325.25
2023-02-03T05:18:45.730Z,100353.81
2023-02-03T05:21:13.596Z,100350.78
2023-02-03T05:23:41.578Z,100340.91
2023-02-03T05:26:09.810Z,100345.84
2023-02-03T05:28:39.107Z,100335.97
2023-02-03T05:31:07.112Z,100336.41
2023-02-03T05:33:35.163Z,100347.34
2023-02-03T05:36:03.084Z,100342.22
2023-02-03T05:38:30.935Z,100341.25
2023-02-03T05:41:16.008Z,100345.44
2023-02-03T05:43:45.333Z,100346.06
2023-02-03T05:46:13.269Z,100337.81
2023-02-03T05:48:41.102Z,100326.97
2023-02-03T05:51:08.880Z,100320.31
2023-02-03T05:53:36.732Z,100315.38
2023-02-03T05:56:04.709Z,100302.06
2023-02-03T05:58:32.595Z,100300.25
2023-02-03T06:01:01.846Z,100301.44
2023-02-03T06:03:29.736Z,100305.50
2023-02-03T06:05:58.928Z,100296.84
2023-02-03T06:08:28.593Z,100308.41
2023-02-03T06:10:59.639Z,100304.13
2023-02-03T06:13:28.284Z,100281.47
2023-02-03T06:15:56.481Z,100309.81
2023-02-03T06:18:25.762Z,100306.69
2023-02-03T06:20:53.732Z,100304.22
2023-02-03T06:23:21.685Z,100304.00
2023-02-03T06:25:50.562Z,100282.13
2023-02-03T06:28:18.537Z,100277.41
2023-02-03T06:30:46.447Z,100288.25
2023-02-03T06:33:14.417Z,100285.78
2023-02-03T06:35:43.558Z,100286.00
2023-02-03T06:38:11.443Z,100279.22
2023-02-03T06:40:39.501Z,100286.97
2023-02-03T06:43:07.408Z,100274.19
2023-02-03T06:45:35.621Z,100276.88
2023-02-03T06:48:03.546Z,100277.81
2023-02-03T06:50:31.579Z,100260.66
2023-02-03T06:53:00.815Z,100262.25
2023-02-03T06:55:28.649Z,100263.78
2023-02-03T06:57:56.642Z,100251.44
2023-02-03T07:00:24.818Z,100253.13
2023-02-03T07:02:56.311Z,100267.94
2023-02-03T07:05:25.138Z,100258.84
2023-02-03T07:07:53.480Z,100253.13
2023-02-03T07:10:22.880Z,100261.63
2023-02-03T07:12:51.842Z,100267.72
2023-02-03T07:15:19.993Z,100270.53
2023-02-03T07:17:54.284Z,100270.75
2023-02-03T07:20:23.462Z,100264.25
2023-02-03T07:22:55.248Z,100269.63
2023-02-03T07:25:25.429Z,100266.53
2023-02-03T07:27:53.418Z,100263.41
2023-02-03T07:30:21.719Z,100253.53
2023-02-03T07:32:49.782Z,100252.63
2023-02-03T07:35:18.345Z,100257.78
2023-02-03T07:37:46.618Z,100248.97
2023-02-03T07:40:15.533Z,100248.31
2023-02-03T07:42:45.246Z,100249.28
2023-02-03T07:45:14.353Z,100247.19
2023-02-03T07:47:43.771Z,100248.56
2023-02-03T07:50:12.583Z,100241.38
2023-02-03T07:52:41.105Z,100234.81
2023-02-03T07:55:09.970Z,100239.88
2023-02-03T07:57:38.019Z,100235.88
2023-02-03T08:00:08.352Z,100233.59
2023-02-03T08:02:42.347Z,100238.72
2023-02-03T08:05:10.961Z,100235.41
2023-02-03T08:07:39.047Z,100239.59
2023-02-03T08:10:08.337Z,100234.75
2023-02-03T08:12:36.266Z,100236.25
2023-02-03T08:15:04.462Z,100232.38
2023-02-03T08:17:34.305Z,100220.88
2023-02-03T08:20:02.338Z,100234.69
2023-02-03T08:22:30.162Z,100221.66
2023-02-03T08:24:58.060Z,100222.63
2023-02-03T08:27:25.947Z,100216.72
2023-02-03T08:29:53.811Z,100209.09
2023-02-03T08:32:23.209Z,100211.09
2023-02-03T08:34:53.196Z,100203.59
2023-02-03T08:37:24.384Z,100210.78
2023-02-03T08:39:53.275Z,100195.78
2023-02-03T08:42:21.393Z,100178.09
2023-02-03T08:44:49.306Z,100184.38
2023-02-03T08:47:17.668Z,100179.44
2023-02-03T08:49:45.638Z,100172.97
2023-02-03T08:52:18.128Z,100170.50
2023-02-03T08:54:47.379Z,100149.22
2023-02-03T08:57:15.661Z,100164.81
2023-02-03T08:59:44.698Z,100156.63
2023-02-03T09:02:15.853Z,100155.13
2023-02-03T09:04:43.888Z,100133.72
2023-02-03T09:07:13.297Z,100146.56
2023-02-03T09:09:42.612Z,100156.25
2023-02-03T09:12:12.281Z,100145.03
2023-02-03T09:14:40.199Z,100140.28
2023-02-03T09:17:09.273Z,100139.44
2023-02-03T09:19:37.399Z,100138.88
2023-02-03T09:22:05.703Z,100140.84
2023-02-03T09:24:34.052Z,100135.44
2023-02-03T09:27:03.298Z,100131.31
2023-02-03T09:29:31.271Z,100139.13
2023-02-03T09:32:00.165Z,100132.25
2023-02-03T09:34:28.247Z,100127.31
2023-02-03T09:36:56.132Z,100124.09
2023-02-03T09:39:25.144Z,100102.81
2023-02-03T09:42:11.971Z,100108.16
2023-02-03T09:44:46.328Z,100110.44
2023-02-03T09:47:18.024Z,100102.47
2023-02-03T09:49:50.406Z,100083.91
2023-02-03T09:52:20.668Z,100098.00
2023-02-03T09:54:55.008Z,100100.34
2023-02-03T09:57:26.523Z,100087.72
2023-02-03T09:59:57.235Z,100070.50
2023-02-03T10:02:45.507Z,100084.38
2023-02-03T10:05:21.406Z,100060.47
2023-02-03T10:07:58.344Z,100066.72
2023-02-03T10:10:38.899Z,100060.16
2023-02-03T10:13:18.713Z,100058.75
2023-02-03T10:16:12.134Z,100050.88
2023-02-03T10:18:42.812Z,100048.47
2023-02-03T10:21:17.946Z,100036.59
2023-02-03T10:23:47.572Z,100037.84
2023-02-03T10:26:20.838Z,100037.53
2023-02-03T10:28:55.585Z,100026.44
2023-02-03T10:31:25.245Z,100024.53
2023-02-03T10:34:01.712Z,100024.69
2023-02-03T10:36:41.937Z,100018.81
2023-02-03T10:39:22.886Z,100011.50
2023-02-03T10:41:50.853Z,99990.50
2023-02-03T10:44:20.228Z,100008.16
2023-02-03T10:46:48.114Z,100003.41
2023-02-03T10:49:16.714Z,99985.53
2023-02-03T10:51:51.384Z,99976.78
2023-02-03T10:54:32.135Z,99965.22
2023-02-03T10:57:05.680Z,99971.66
2023-02-03T10:59:37.088Z,99955.50
2023-02-03T11:02:22.140Z,99954.31
2023-02-03T11:04:50.060Z,99925.84
2023-02-03T11:07:26.802Z,99940.53
2023-02-03T11:09:54.746Z,99932.25
2023-02-03T11:12:22.734Z,99934.91
2023-02-03T11:14:53.820Z,99913.09
2023-02-03T11:17:23.969Z,99905.94
2023-02-03T11:19:53.719Z,99898.91
2023-02-03T11:22:30.626Z,99895.06
2023-02-03T11:24:59.756Z,99884.41
2023-02-03T11:27:31.490Z,99885.31
2023-02-03T11:30:15.751Z,99878.28
2023-02-03T11:32:45.875Z,99873.31
2023-02-03T11:35:21.746Z,99869.50
2023-02-03T11:37:53.230Z,99860.38
2023-02-03T11:40:26.787Z,99856.28
2023-02-03T11:43:03.892Z,99850.72
2023-02-03T11:45:39.234Z,99851.91
2023-02-03T11:48:19.053Z,99832.75
2023-02-03T11:50:50.620Z,99826.00
2023-02-03T11:53:30.290Z,99811.81
2023-02-03T11:56:16.865Z,99807.28
2023-02-03T11:59:04.355Z,99800.47
2023-02-03T12:01:59.264Z,99793.03
2023-02-03T12:05:07.497Z,99784.28
2023-02-03T12:07:56.179Z,99777.72
2023-02-03T12:10:36.556Z,99751.09
2023-02-03T12:13:21.024Z,99744.97
2023-02-03T12:16:05.498Z,99743.44
2023-02-03T12:18:46.897Z,99737.00
2023-02-03T12:21:34.830Z,99735.56
2023-02-03T12:24:14.260Z,99718.84
2023-02-03T12:26:50.917Z,99706.81
2023-02-03T12:29:23.507Z,99699.72
2023-02-03T12:32:00.907Z,99695.63
2023-02-03T12:34:35.149Z,99687.28
2023-02-03T12:37:07.668Z,99660.41
2023-02-03T12:39:42.589Z,99680.03
2023-02-03T12:42:19.335Z,99655.03
2023-02-03T12:44:51.969Z,99671.59
2023-02-03T12:47:28.281Z,99665.44
2023-02-03T12:50:00.818Z,99642.13
2023-02-03T12:52:33.789Z,99654.75
2023-02-03T12:55:16.362Z,99646.91
2023-02-03T12:57:50.909Z,99635.00
2023-02-03T13:00:28.007Z,99621.53
2023-02-03T13:03:10.202Z,99614.03
2023-02-03T13:05:46.214Z,99617.25
2023-02-03T13:08:23.329Z,99607.53
2023-02-03T13:10:54.418Z,99599.97
2023-02-03T13:13:32.734Z,99590.06
2023-02-03T13:16:03.445Z,99579.41
2023-02-03T13:18:37.402Z,99579.66
2023-02-03T13:21:06.941Z,99565.84
2023-02-03T13:23:34.923Z,99561.91
2023-02-03T13:26:18.756Z,99548.78
2023-02-03T13:29:01.504Z,99552.16
2023-02-03T13:31:42.094Z,99544.91
2023-02-03T13:34:37.115Z,99536.72
2023-02-03T13:37:32.506Z,99528.38
2023-02-03T13:40:14.291Z,99511.38
2023-02-03T13:42:47.420Z,99512.38
2023-02-03T13:45:28.384Z,99484.31
2023-02-03T13:48:01.601Z,99502.50
2023-02-03T13:50:31.619Z,99497.47
2023-02-03T13:53:06.436Z,99461.84
2023-02-03T13:55:40.289Z,99486.66
2023-02-03T13:58:19.626Z,99474.28
2023-02-03T14:01:23.202Z,99470.13
2023-02-03T14:03:51.313Z,99469.97
2023-02-03T14:06:56.315Z,99465.88
2023-02-03T14:09:38.119Z,99451.88
2023-02-03T14:12:20.879Z,99458.69
2023-02-03T14:15:04.611Z,99439.44
2023-02-03T14:18:01.684Z,99439.69
2023-02-03T14:21:00.409Z,99435.66
2023-02-03T14:23:36.436Z,99420.50
2023-02-03T14:26:05.985Z,99415.88
2023-02-03T14:28:41.330Z,99419.28
2023-02-03T14:31:15.426Z,99419.13
2023-02-03T14:34:07.111Z,99405.69
2023-02-03T14:36:43.021Z,99401.44
2023-02-03T14:39:55.428Z,99387.28
2023-02-03T14:42:44.316Z,99393.00
2023-02-03T14:45:22.658Z,99385.59
2023-02-03T14:48:02.474Z,99393.16
2023-02-03T14:50:40.889Z,99393.25
2023-02-03T14:53:28.881Z,99390.69
2023-02-03T14:56:12.514Z,99379.25
2023-02-03T14:58:48.199Z,99373.72
2023-02-03T15:01:29.924Z,99351.91
2023-02-03T15:04:22.683Z,99364.19
2023-02-03T15:06:53.144Z,99363.56
2023-02-03T15:09:32.447Z,99365.34
2023-02-03T15:12:00.637Z,99358.84
2023-02-03T15:14:32.160Z,99355.00
2023-02-03T15:17:01.891Z,99351.75
2023-02-03T15:19:33.494Z,99332.41
2023-02-03T15:22:01.959Z,99349.53
2023-02-03T15:24:36.904Z,99357.88
2023-02-03T15:27:05.108Z,99343.19
2023-02-03T15:29:36.379Z,99346.59
2023-02-03T15:32:10.307Z,99337.56
2023-02-03T15:34:42.451Z,99326.97
2023-02-03T15:37:19.179Z,99321.25
2023-02-03T15:39:56.990Z,99331.38
2023-02-03T15:42:31.003Z,99303.31
2023-02-03T15:45:06.351Z,99318.63
2023-02-03T15:47:39.490Z,99315.47
2023-02-03T15:50:26.974Z,99308.97
2023-02-03T15:52:56.912Z,99299.16
2023-02-03T15:55:33.763Z,99311.59
2023-02-03T15:58:01.719Z,99297.59
2023-02-03T16:00:38.775Z,99297.53
2023-02-03T16:03:15.792Z,99283.31
2023-02-03T16:05:48.614Z,99265.06
2023-02-03T16:08:36.150Z,99251.75
2023-02-03T16:11:21.767Z,99247.44
2023-02-03T16:13:49.725Z,99239.19
2023-02-03T16:16:23.475Z,99240.09
2023-02-03T16:18:53.306Z,99241.03
2023-02-03T16:21:28.881Z,99243.72
2023-02-03T16:23:57.006Z,99249.50
2023-02-03T16:26:26.228Z,99238.06
2023-02-03T16:29:30.673Z,99249.66
2023-02-03T16:32:18.291Z,99237.22
2023-02-03T16:35:04.558Z,99238.06
2023-02-03T16:37:51.281Z,99239.06
2023-02-03T16:40:39.068Z,99229.00
2023-02-03T16:43:29.947Z,99223.22
2023-02-03T16:46:17.043Z,99215.09
2023-02-03T16:49:03.645Z,99224.19
2023-02-03T16:51:38.249Z,99219.28
2023-02-03T16:54:06.926Z,99209.47
2023-02-03T16:56:34.760Z,99206.50
2023-02-03T16:59:02.586Z,99223.44
2023-02-03T17:01:30.529Z,99227.13
2023-02-03T17:03:59.841Z,99252.25
2023-02-03T17:06:27.929Z,99248.50
2023-02-03T17:08:58.868Z,99259.31
2023-02-03T17:11:27.351Z,99255.94
2023-02-03T17:13:55.328Z,99261.03
2023-02-03T17:16:26.187Z,99274.19
2023-02-03T17:18:54.510Z,99279.06
2023-02-03T17:21:26.978Z,99293.06
2023-02-03T17:23:55.339Z,99301.22
2023-02-03T17:26:23.241Z,99320.31
2023-02-03T17:28:51.527Z,99331.00
2023-02-03T17:31:21.461Z,99323.44
2023-02-03T17:33:52.012Z,99317.38
2023-02-03T17:36:21.669Z,99314.03
2023-02-03T17:55:30.365Z,99282.09
2023-02-03T17:57:58.691Z,99243.28
2023-02-03T18:00:27.790Z,99258.06
2023-02-03T18:02:56.912Z,99252.25
2023-02-03T18:05:25.555Z,99244.00
2023-02-03T18:07:53.474Z,99214.22
2023-02-03T18:10:21.379Z,99219.03
2023-02-03T18:12:50.681Z,99244.78
2023-02-03T18:15:18.709Z,99244.59
2023-02-03T18:17:46.673Z,99231.53
2023-02-03T18:20:14.816Z,99252.72
2023-02-03T18:22:44.774Z,99270.13
2023-02-03T18:25:15.985Z,99268.41
2023-02-03T18:27:43.872Z,99273.44
2023-02-03T18:30:14.974Z,99271.81
2023-02-03T18:32:42.915Z,99281.56
2023-02-03T18:35:16.757Z,99268.97
2023-02-03T18:37:44.661Z,99278.03
2023-02-03T18:40:12.709Z,99262.34
2023-02-03T18:42:40.659Z,99273.94
2023-02-03T18:45:09.542Z,99265.50
2023-02-03T18:47:39.114Z,99260.53
2023-02-03T18:50:07.513Z,99262.09
2023-02-03T18:52:35.499Z,99256.28
2023-02-03T18:55:03.323Z,99264.34
2023-02-03T18:57:31.170Z,99273.25
2023-02-03T18:59:59.021Z,99264.13
2023-02-03T19:02:28.142Z,99269.84
2023-02-03T19:04:57.421Z,99268.28
2023-02-03T19:07:25.708Z,99270.06
2023-02-03T19:09:53.620Z,99276.78
2023-02-03T19:12:21.538Z,99274.38
2023-02-03T19:14:49.376Z,99270.44
2023-02-03T19:17:17.519Z,99258.63
2023-02-03T19:19:45.542Z,99271.38
2023-02-03T19:22:14.846Z,99273.22
2023-02-03T19:24:42.646Z,99275.78
2023-02-03T19:27:10.509Z,99271.66
2023-02-03T19:29:39.745Z,99276.47
2023-02-03T19:32:09.640Z,99276.47
2023-02-03T19:34:37.631Z,99283.00
2023-02-03T19:37:05.575Z,99271.97
2023-02-03T19:39:35.072Z,99281.16
2023-02-03T19:42:03.652Z,99295.44
2023-02-03T19:44:31.594Z,99280.78
2023-02-03T19:46:59.534Z,99285.81
2023-02-03T19:49:28.624Z,99276.97
2023-02-03T19:51:56.590Z,99276.25
2023-02-03T19:54:24.421Z,99279.22
2023-02-03T19:56:53.692Z,99282.41
2023-02-03T19:59:21.586Z,99290.66
2023-02-03T20:01:49.948Z,99310.56
2023-02-03T20:04:17.907Z,99312.19
2023-02-03T20:06:45.776Z,99295.06
2023-02-03T20:09:13.623Z,99291.88
2023-02-03T20:11:41.431Z,99311.47
2023-02-03T20:14:11.192Z,99305.75
2023-02-03T20:16:39.166Z,99309.00
2023-02-03T20:19:07.142Z,99308.94
2023-02-03T20:21:35.146Z,99299.88
2023-02-03T20:24:03.012Z,99310.28
2023-02-03T20:26:30.891Z,99311.97
2023-02-03T20:28:58.783Z,99316.16
2023-02-03T20:31:28.099Z,99326.69
2023-02-03T20:33:55.968Z,99321.94
2023-02-03T20:36:24.094Z,99323.00
2023-02-03T20:38:52.070Z,99325.69
2023-02-03T20:41:20.357Z,99330.06
2023-02-03T20:43:48.908Z,99314.72
2023-02-03T20:46:19.501Z,99327.72
2023-02-03T20:48:48.920Z,99315.91
2023-02-03T20:51:20.990Z,99309.53
2023-02-03T20:53:50.050Z,99331.75
2023-02-03T20:56:21.346Z,99321.28
2023-02-03T20:58:49.560Z,99325.59
2023-02-03T21:01:20.016Z,99303.16
2023-02-03T21:04:07.326Z,99301.31
2023-02-03T21:06:36.315Z,99295.22
2023-02-03T21:09:13.936Z,99305.41
2023-02-03T21:11:42.796Z,99308.69
2023-02-03T21:14:19.903Z,99307.13
2023-02-03T21:16:48.709Z,99307.06
2023-02-03T21:19:28.210Z,99306.13
2023-02-03T21:21:56.769Z,99309.38
2023-02-03T21:24:27.766Z,99286.50
2023-02-03T21:26:56.237Z,99311.00
2023-02-03T21:29:26.877Z,99316.81
2023-02-03T21:31:56.074Z,99315.91
2023-02-03T21:34:29.389Z,99320.91
2023-02-03T21:36:57.591Z,99320.16
2023-02-03T21:39:28.368Z,99315.19
2023-02-03T21:41:57.257Z,99318.50
2023-02-03T21:44:28.405Z,99318.72
2023-02-03T21:46:56.667Z,99318.78
2023-02-03T21:49:24.552Z,99318.66
2023-02-03T21:51:54.075Z,99314.28
2023-02-03T21:54:27.571Z,99310.69
2023-02-03T21:56:55.532Z,99293.56
2023-02-03T21:59:26.143Z,99304.22
2023-02-03T22:01:54.011Z,99302.00
2023-02-03T22:04:22.002Z,99311.84
2023-02-03T22:06:53.750Z,99304.22
2023-02-03T22:09:24.558Z,99318.78
2023-02-03T22:11:52.819Z,99315.41
2023-02-03T22:14:21.791Z,99319.50
2023-02-03T22:16:50.036Z,99320.06
2023-02-03T22:19:18.420Z,99311.59
2023-02-03T22:21:47.710Z,99310.75
2023-02-03T22:24:15.592Z,99315.75
2023-02-03T22:26:44.899Z,99315.09
2023-02-03T22:29:12.775Z,99303.78
2023-02-03T22:31:42.669Z,99316.59
2023-02-03T22:34:10.687Z,99313.47
2023-02-03T22:36:38.573Z,99316.09
2023-02-03T22:39:06.464Z,99307.25
2023-02-03T22:41:34.270Z,99309.88
2023-02-03T22:44:03.999Z,99299.25
2023-02-03T22:46:31.878Z,99296.03
2023-02-03T22:48:59.739Z,99293.72
2023-02-03T22:51:27.621Z,99288.84
2023-02-03T22:53:55.445Z,99299.72
2023-02-03T22:56:23.800Z,99283.94
2023-02-03T22:58:51.732Z,99294.84
2023-02-03T23:01:20.918Z,99288.19
2023-02-03T23:03:48.818Z,99291.59
2023-02-03T23:06:16.647Z,99281.63
2023-02-03T23:08:44.526Z,99274.97
2023-02-03T23:11:12.438Z,99270.72
2023-02-03T23:13:40.253Z,99273.13
2023-02-03T23:16:08.689Z,99275.75
2023-02-03T23:18:37.919Z,99282.53
2023-02-03T23:21:05.983Z,99291.81
2023-02-03T23:23:33.876Z,99278.81
2023-02-03T23:26:01.718Z,99278.94
2023-02-03T23:28:29.642Z,99278.25
2023-02-03T23:30:57.563Z,99275.00
2023-02-03T23:33:25.506Z,99280.94
2023-02-03T23:35:55.284Z,99273.56
2023-02-03T23:38:23.101Z,99280.28
2023-02-03T23:40:50.962Z,99280.47
2023-02-03T23:43:19.064Z,99292.06
2023-02-03T23:45:46.902Z,99298.72
2023-02-03T23:48:17.433Z,99280.03
2023-02-03T23:50:45.452Z,99275.19
2023-02-03T23:53:14.633Z,99287.53
2023-02-03T23:55:42.478Z,99275.25
2023-02-03T23:58:10.303Z,99280.94
